Time;durP1;ratioP1;P1;durP2;ratioP2;P2;SDS_P1;SDS_P2;PMS_P1;PMS_P2;Temp;Humidity;BMP_temperature;BMP_pressure;BME280_temperature;BME280_humidity;BME280_pressure;Samples;Min_cycle;Max_cycle;Signal;HPM_P1;HPM_P2
2021/01/17 00:00:35;;;;;;;8.93;5.00;;;;;;;0.10;41.81;99270.13;5065021;23;20064;-79
2021/01/17 00:03:01;;;;;;;15.63;5.37;;;;;;;-0.18;41.58;99237.69;5052336;28;20032;-79
2021/01/17 00:05:28;;;;;;;8.80;5.40;;;;;;;0.39;41.77;99317.22;5034858;28;20041;-78
2021/01/17 00:07:54;;;;;;;10.37;5.07;;;;;;;0.26;41.41;99309.53;5040916;23;20088;-79
2021/01/17 00:10:23;;;;;;;9.83;5.63;;;;;;;0.31;41.34;99320.41;5058930;23;20050;-78
2021/01/17 00:12:50;;;;;;;8.07;4.90;;;;;;;0.16;41.62;99321.59;5043087;23;20105;-79
2021/01/17 00:15:25;;;;;;;5.23;4.33;;;;;;;0.19;40.56;99339.53;5039055;23;20041;-82
2021/01/17 00:17:50;;;;;;;8.80;5.17;;;;;;;-0.33;41.55;99327.03;5045951;23;20061;-81
2021/01/17 00:20:18;;;;;;;8.07;5.03;;;;;;;-0.03;41.15;99323.91;5035770;28;20095;-81
2021/01/17 00:22:45;;;;;;;8.07;4.80;;;;;;;-0.27;41.60;99290.25;5060035;23;20088;-80
2021/01/17 00:25:18;;;;;;;8.07;4.53;;;;;;;-0.16;41.10;99303.25;5073563;23;20041;-80
2021/01/17 00:27:45;;;;;;;8.13;4.90;;;;;;;0.03;41.63;99351.19;5067725;23;20096;-80
2021/01/17 00:30:21;;;;;;;9.13;4.63;;;;;;;0.08;39.98;99346.47;5035628;28;20049;-80
2021/01/17 00:32:49;;;;;;;7.67;4.30;;;;;;;-0.41;40.21;99312.03;5042375;23;20099;-79
2021/01/17 00:35:17;;;;;;;8.23;5.03;;;;;;;-0.23;40.62;99329.78;5042034;23;20072;-80
2021/01/17 00:37:44;;;;;;;8.23;4.73;;;;;;;-0.35;40.90;99336.69;5040016;23;20067;-79
2021/01/17 00:40:11;;;;;;;7.17;5.03;;;;;;;-0.75;40.89;99274.78;5039220;23;20030;-78
2021/01/17 00:42:46;;;;;;;6.27;4.73;;;;;;;-0.07;40.79;99361.41;5035498;28;20120;-79
2021/01/17 00:45:13;;;;;;;9.97;4.80;;;;;;;-0.84;41.22;99252.16;5033987;28;20065;-81
2021/01/17 00:50:05;;;;;;;5.50;4.13;;;;;;;0.02;40.92;99378.09;5058201;23;20049;-79
2021/01/17 00:52:32;;;;;;;7.77;4.70;;;;;;;-0.15;40.61;99351.59;5057959;23;20050;-79
2021/01/17 00:54:58;;;;;;;8.13;5.67;;;;;;;-0.87;41.15;99262.75;5052104;28;20021;-79
2021/01/17 00:57:26;;;;;;;6.83;4.83;;;;;;;-0.03;40.61;99376.63;5058460;23;20050;-79
2021/01/17 01:02:27;;;;;;;10.80;6.30;;;;;;;-0.17;40.98;99371.66;5036390;26;20054;-79
2021/01/17 01:07:29;;;;;;;9.57;5.17;;;;;;;-0.26;40.88;99380.13;5015477;26;20057;-81
2021/01/17 01:09:55;;;;;;;7.33;4.97;;;;;;;-0.26;40.69;99380.13;5010378;23;20038;-80
2021/01/17 01:12:22;;;;;;;6.73;4.77;;;;;;;-0.32;40.68;99355.47;5057817;23;20407;-80
2021/01/17 01:14:48;;;;;;;8.17;4.67;;;;;;;-0.30;41.03;99377.84;5031730;23;20092;-79
2021/01/17 01:17:14;;;;;;;6.97;4.60;;;;;;;-0.29;40.71;99371.72;5058382;23;20077;-79
2021/01/17 01:24:40;;;;;;;8.23;5.20;;;;;;;-0.18;40.86;99369.16;4910105;23;20053;-79
2021/01/17 01:27:14;;;;;;;7.40;4.73;;;;;;;-0.65;40.65;99282.75;5041716;23;20357;-84
2021/01/17 01:32:31;;;;;;;6.63;4.53;;;;;;;-0.08;40.38;99378.75;4911828;23;20053;-79
2021/01/17 01:37:36;;;;;;;9.37;6.90;;;;;;;-0.67;40.61;99293.25;5029946;28;20062;-81
2021/01/17 01:42:37;;;;;;;7.03;4.47;;;;;;;-0.66;40.63;99333.78;5050312;23;20395;-79
2021/01/17 01:45:09;;;;;;;8.57;5.00;;;;;;;-0.54;40.76;99337.22;5052030;28;20060;-79
2021/01/17 01:47:38;;;;;;;10.13;6.47;;;;;;;-0.13;40.78;99398.19;5064691;23;20057;-79
2021/01/17 01:50:13;;;;;;;9.57;5.43;;;;;;;-0.19;40.46;99394.28;5062881;23;20033;-80
2021/01/17 01:55:07;;;;;;;10.70;6.07;;;;;;;-0.33;39.96;99391.88;5112104;23;20084;-81
2021/01/17 01:57:33;;;;;;;9.10;5.53;;;;;;;-0.30;40.44;99396.84;4990993;23;20049;-80
2021/01/17 01:59:59;;;;;;;7.30;4.97;;;;;;;-0.41;40.52;99386.44;5009985;28;20443;-79
2021/01/17 02:02:24;;;;;;;8.77;5.40;;;;;;;-0.51;40.54;99368.13;5013277;28;20034;-79
2021/01/17 02:04:53;;;;;;;8.00;5.83;;;;;;;-0.82;40.97;99328.03;5019106;23;20053;-79
2021/01/17 02:07:56;;;;;;;9.40;6.13;;;;;;;-0.40;39.70;99401.88;5048722;28;20061;-80
2021/01/17 02:10:22;;;;;;;8.03;5.23;;;;;;;-0.74;40.40;99358.59;5031438;23;20045;-80
2021/01/17 02:15:27;;;;;;;9.83;5.17;;;;;;;-0.39;40.22;99402.72;5027612;28;20061;-79
2021/01/17 02:17:55;;;;;;;8.13;5.13;;;;;;;-0.41;40.84;99404.59;5046036;23;20045;-79
2021/01/17 02:20:24;;;;;;;10.23;6.60;;;;;;;-0.60;41.04;99412.06;5033371;23;20073;-80
2021/01/17 02:23:14;;;;;;;9.00;5.10;;;;;;;-0.59;39.63;99413.72;5048171;23;20047;-80
2021/01/17 02:28:07;;;;;;;7.10;4.93;;;;;;;-0.79;40.95;99374.47;5063329;23;20089;-79
2021/01/17 02:30:45;;;;;;;10.63;6.17;;;;;;;-0.68;40.54;99389.28;5030303;28;20086;-80
2021/01/17 02:33:32;;;;;;;8.30;4.93;;;;;;;-0.49;40.63;99405.16;5051216;28;20025;-80
2021/01/17 02:36:42;;;;;;;9.27;5.33;;;;;;;-0.68;40.05;99418.63;5047334;28;20555;-80
2021/01/17 02:39:24;;;;;;;10.33;5.90;;;;;;;-0.48;39.82;99404.22;5024456;28;20041;-79
2021/01/17 02:42:00;;;;;;;7.75;5.70;;;;;;;-0.73;40.13;99387.00;5048210;28;20029;-80
2021/01/17 02:44:29;;;;;;;9.97;5.80;;;;;;;-0.99;40.91;99360.34;5064212;23;20048;-77
2021/01/17 02:46:56;;;;;;;9.83;5.47;;;;;;;-0.65;41.11;99395.06;5058117;23;20056;-78
2021/01/17 02:54:57;;;;;;;10.40;6.40;;;;;;;-0.70;40.23;99404.94;4630460;26;20054;-79
2021/01/17 02:57:26;;;;;;;12.00;5.93;;;;;;;-0.69;40.95;99405.75;5016877;23;20064;-80
2021/01/17 03:02:29;;;;;;;;;;;;;;;-0.64;41.33;99416.63;5100195;23;20107;-78
2021/01/17 03:05:17;;;;;;;8.93;5.23;;;;;;;-0.89;39.85;99377.81;5045214;23;19922;-79
2021/01/17 03:10:09;;;;;;;7.97;5.90;;;;;;;-0.69;40.99;99409.19;5032968;23;20130;-79
2021/01/17 03:12:36;;;;;;;10.10;5.40;;;;;;;-0.51;41.28;99424.34;5033390;28;20036;-78
2021/01/17 03:17:38;;;;;;;9.23;5.93;;;;;;;-0.97;40.78;99363.66;4759903;26;20475;-79
2021/01/17 03:20:04;;;;;;;9.63;5.70;;;;;;;-0.62;40.68;99403.56;5014801;28;20026;-79
2021/01/17 03:22:30;;;;;;;9.60;5.77;;;;;;;-0.67;41.01;99415.09;5030681;28;20076;-78
2021/01/17 03:24:58;;;;;;;10.10;5.87;;;;;;;-0.56;41.02;99419.50;5023804;23;20468;-78
2021/01/17 03:27:23;;;;;;;9.20;5.50;;;;;;;-0.47;40.77;99421.44;5033019;28;20034;-78
2021/01/17 03:29:48;;;;;;;10.73;6.27;;;;;;;-0.60;41.19;99428.44;5049462;28;20084;-81
2021/01/17 03:32:14;;;;;;;10.70;5.83;;;;;;;-1.09;40.99;99332.59;5049130;28;20060;-79
2021/01/17 03:34:39;;;;;;;10.00;5.80;;;;;;;-0.97;40.86;99353.28;5050720;28;20033;-80
2021/01/17 03:37:06;;;;;;;9.50;5.50;;;;;;;-0.48;40.74;99412.00;5032281;28;20034;-80
2021/01/17 03:39:32;;;;;;;9.23;5.50;;;;;;;-0.42;41.18;99421.91;5034000;28;20033;-81
2021/01/17 03:41:58;;;;;;;9.93;5.60;;;;;;;-0.69;40.76;99414.38;5057277;23;20029;-77
2021/01/17 03:44:29;;;;;;;8.13;5.77;;;;;;;-0.71;41.46;99413.66;5063765;23;20049;-79
2021/01/17 03:46:54;;;;;;;5.80;4.23;;;;;;;-0.73;41.21;99409.50;5055512;23;20056;-78
2021/01/17 03:49:21;;;;;;;9.80;5.30;;;;;;;-1.23;41.03;99348.31;5048158;28;20272;-78
2021/01/17 03:51:47;;;;;;;8.57;5.60;;;;;;;-1.09;41.62;99381.84;5050796;28;20034;-78
2021/01/17 03:54:18;;;;;;;8.30;5.00;;;;;;;-0.83;40.40;99434.41;5032687;28;20040;-77
2021/01/17 03:59:15;;;;;;;9.77;5.50;;;;;;;-0.87;41.07;99431.19;5028585;28;20046;-77
2021/01/17 04:01:40;;;;;;;15.57;6.90;;;;;;;-1.06;41.53;99412.72;5014111;28;20022;-79
2021/01/17 04:04:06;;;;;;;7.43;5.53;;;;;;;-1.06;41.65;99417.88;5054930;23;20049;-77
2021/01/17 04:06:31;;;;;;;10.63;6.37;;;;;;;-0.89;41.80;99442.63;5056206;23;20046;-78
2021/01/17 04:11:25;;;;;;;11.30;6.33;;;;;;;-0.91;41.23;99422.00;5028028;28;20050;-80
2021/01/17 04:13:51;;;;;;;9.27;5.90;;;;;;;-0.76;41.32;99433.84;5030272;28;20036;-80
2021/01/17 04:16:17;;;;;;;8.37;5.83;;;;;;;-0.78;41.25;99443.50;5019263;23;20070;-79
2021/01/17 04:18:51;;;;;;;10.63;6.17;;;;;;;-0.81;40.45;99435.94;5026185;23;20057;-81
2021/01/17 04:21:17;;;;;;;8.40;5.13;;;;;;;-1.11;41.43;99388.88;5051936;28;20028;-80
2021/01/17 04:23:43;;;;;;;9.07;6.47;;;;;;;-0.83;41.38;99443.00;5056217;23;20045;-79
2021/01/17 04:26:14;;;;;;;9.43;5.97;;;;;;;-0.83;40.30;99448.19;5031864;28;20022;-79
2021/01/17 04:28:43;;;;;;;9.13;6.22;;;;;;;-1.05;41.59;99410.00;5055694;23;20045;-79
2021/01/17 04:31:08;;;;;;;12.70;6.80;;;;;;;-1.09;40.52;99399.97;5033833;28;20351;-77
2021/01/17 04:33:34;;;;;;;11.03;6.37;;;;;;;-1.10;41.14;99419.03;5033524;28;20029;-80
2021/01/17 04:35:59;;;;;;;10.27;6.10;;;;;;;-0.93;41.07;99449.78;5032875;28;20442;-80
2021/01/17 04:38:25;;;;;;;12.70;6.90;;;;;;;-0.88;40.94;99436.50;5050916;28;20021;-79
2021/01/17 04:40:50;;;;;;;14.67;7.70;;;;;;;-1.38;41.37;99357.97;5049565;28;20021;-78
2021/01/17 04:43:15;;;;;;;13.57;6.37;;;;;;;-0.68;41.08;99465.28;5032918;28;20036;-79
2021/01/17 04:45:42;;;;;;;10.13;6.10;;;;;;;-1.37;40.80;99354.44;5056176;23;20037;-80
2021/01/17 04:48:08;;;;;;;9.13;5.90;;;;;;;-0.92;40.15;99435.88;5048363;28;20097;-79
2021/01/17 04:50:34;;;;;;;8.87;5.43;;;;;;;-0.83;41.02;99452.53;5047997;28;20029;-79
2021/01/17 04:53:05;;;;;;;9.43;5.77;;;;;;;-0.86;40.80;99435.44;5053792;23;20124;-79
2021/01/17 04:55:33;;;;;;;9.00;6.07;;;;;;;-0.76;40.86;99464.13;5047597;28;20032;-81
2021/01/17 04:58:10;;;;;;;8.83;5.80;;;;;;;-0.92;40.88;99463.56;5048245;28;20073;-80
2021/01/17 05:00:41;;;;;;;11.47;6.93;;;;;;;-1.06;41.21;99475.72;5029562;28;20377;-80
2021/01/17 05:03:20;;;;;;;14.73;5.43;;;;;;;-1.80;40.05;99330.69;5029560;28;20029;-80
2021/01/17 05:08:31;;;;;;;9.88;5.78;;;;;;;-0.98;41.13;99476.00;5050282;23;20114;-79
2021/01/17 05:11:05;;;;;;;11.00;6.80;;;;;;;-0.98;41.40;99477.78;5050271;23;20101;-78
2021/01/17 05:13:46;;;;;;;14.13;6.77;;;;;;;-1.03;40.43;99452.19;5025860;23;20103;-78
2021/01/17 05:16:14;;;;;;;10.50;6.20;;;;;;;-0.99;41.14;99471.75;5012059;23;20046;-80
2021/01/17 05:21:05;;;;;;;17.88;7.45;;;;;;;-0.80;40.40;99473.91;5047962;23;20057;-79
2021/01/17 05:23:33;;;;;;;13.57;7.07;;;;;;;-0.86;41.02;99483.88;5041516;28;20098;-78
2021/01/17 05:26:00;;;;;;;15.10;8.63;;;;;;;-1.00;41.13;99493.44;5040954;28;20014;-78
2021/01/17 05:28:26;;;;;;;12.37;6.67;;;;;;;-1.33;40.90;99454.31;5041100;28;20140;-78
2021/01/17 05:30:55;;;;;;;10.60;6.50;;;;;;;-0.98;41.26;99490.72;5023550;28;20073;-79
2021/01/17 05:33:26;;;;;;;14.33;8.30;;;;;;;-0.92;40.94;99487.72;5048388;23;20045;-80
2021/01/17 05:35:52;;;;;;;10.07;6.63;;;;;;;-1.08;41.09;99474.16;5038570;28;20038;-78
2021/01/17 05:38:18;;;;;;;14.13;7.50;;;;;;;-1.03;40.88;99491.06;5055366;23;20103;-78
2021/01/17 05:40:43;;;;;;;13.43;7.57;;;;;;;-1.25;41.54;99466.72;5041029;28;20443;-78
2021/01/17 05:43:09;;;;;;;8.73;6.40;;;;;;;-2.06;41.16;99356.56;5040841;28;20033;-79
2021/01/17 05:45:34;;;;;;;9.80;5.77;;;;;;;-1.69;41.33;99405.84;5023539;28;20033;-78
2021/01/17 05:48:02;;;;;;;9.20;5.97;;;;;;;-1.11;41.05;99497.69;5023696;28;20029;-79
2021/01/17 05:50:30;;;;;;;10.20;7.10;;;;;;;-1.24;41.42;99460.63;5042543;28;20025;-78
2021/01/17 05:53:00;;;;;;;10.10;6.20;;;;;;;-1.16;41.06;99492.00;5024287;28;20099;-79
2021/01/17 05:55:36;;;;;;;10.90;6.10;;;;;;;-1.09;40.84;99494.06;5046878;23;20050;-78
2021/01/17 05:58:24;;;;;;;9.40;6.90;;;;;;;-1.08;40.33;99489.72;5037104;23;20052;-78
2021/01/17 06:00:58;;;;;;;10.60;7.00;;;;;;;-1.31;40.80;99463.63;5040845;28;20063;-78
2021/01/17 06:03:32;;;;;;;10.07;6.80;;;;;;;-1.30;40.82;99477.41;5023800;28;20082;-79
2021/01/17 06:06:08;;;;;;;8.67;5.27;;;;;;;-1.12;41.28;99501.22;5040057;28;20025;-78
2021/01/17 06:08:34;;;;;;;9.73;6.80;;;;;;;-1.44;41.36;99447.28;5024537;28;20056;-78
2021/01/17 06:11:10;;;;;;;11.30;6.97;;;;;;;-1.41;41.05;99436.72;5055170;23;20380;-78
2021/01/17 06:13:42;;;;;;;11.77;6.70;;;;;;;-1.09;40.87;99506.19;5056048;23;20034;-79
2021/01/17 06:16:32;;;;;;;10.30;6.82;;;;;;;-1.11;40.65;99503.69;5024712;28;20025;-78
2021/01/17 06:19:01;;;;;;;10.00;6.27;;;;;;;-1.08;41.01;99506.09;5037965;23;20066;-79
2021/01/17 06:21:29;;;;;;;8.07;5.47;;;;;;;-1.45;40.81;99460.31;5015449;28;20040;-80
2021/01/17 06:23:57;;;;;;;10.90;6.80;;;;;;;-1.14;41.38;99503.09;5050715;23;20052;-78
2021/01/17 06:26:25;;;;;;;11.87;6.63;;;;;;;-1.39;41.04;99458.16;5024489;28;20067;-78
2021/01/17 06:28:51;;;;;;;10.00;6.27;;;;;;;-1.00;41.03;99518.50;5039702;23;20052;-78
2021/01/17 06:31:22;;;;;;;12.80;7.30;;;;;;;-0.97;40.97;99521.72;5016924;23;20050;-80
2021/01/17 06:33:49;;;;;;;13.43;7.67;;;;;;;-0.93;41.55;99524.94;5021588;28;20025;-79
2021/01/17 06:36:16;;;;;;;16.33;8.60;;;;;;;-0.85;41.60;99533.00;5041642;23;20049;-79
2021/01/17 06:38:43;;;;;;;13.73;7.13;;;;;;;-0.91;41.22;99514.47;5042506;28;20089;-77
2021/01/17 06:41:09;;;;;;;14.87;8.63;;;;;;;-0.80;41.38;99530.91;5024619;28;20047;-79
2021/01/17 06:43:41;;;;;;;12.27;7.90;;;;;;;-0.80;41.49;99530.91;5024760;28;20040;-78
2021/01/17 06:46:07;;;;;;;13.85;7.88;;;;;;;-0.81;41.97;99515.47;5041792;28;20033;-78
2021/01/17 06:48:32;;;;;;;14.50;8.33;;;;;;;-0.83;41.29;99507.81;5041625;28;20036;-78
2021/01/17 06:51:20;;;;;;;15.07;9.03;;;;;;;-0.68;41.35;99532.69;5031174;23;20037;-78
2021/01/17 06:56:14;;;;;;;13.00;7.95;;;;;;;-0.82;41.46;99501.69;5062422;23;20049;-78
2021/01/17 06:58:40;;;;;;;14.97;8.63;;;;;;;-0.77;41.15;99503.97;5048690;23;20045;-77
2021/01/17 07:01:07;;;;;;;14.80;9.17;;;;;;;-1.18;41.18;99452.41;5041520;28;20337;-79
2021/01/17 07:03:52;;;;;;;14.07;8.43;;;;;;;-0.59;40.38;99543.34;5042704;28;20030;-78
2021/01/17 07:09:38;;;;;;;16.30;8.83;;;;;;;-0.79;40.80;99523.97;5050141;23;20060;-78
2021/01/17 07:12:13;;;;;;;13.53;9.00;;;;;;;-0.70;41.15;99536.31;5040033;23;20041;-79
2021/01/17 07:14:41;;;;;;;12.50;7.87;;;;;;;-0.81;41.19;99526.66;5032835;23;20136;-78
2021/01/17 07:19:49;;;;;;;10.00;6.47;;;;;;;-0.64;41.15;99538.50;5032546;26;20057;-79
2021/01/17 07:22:16;;;;;;;12.37;7.00;;;;;;;-0.74;39.60;99533.13;5034967;23;20995;-79
2021/01/17 07:24:46;;;;;;;10.33;6.43;;;;;;;-0.77;40.28;99535.88;5013760;28;20052;-80
2021/01/17 07:27:36;;;;;;;15.40;7.43;;;;;;;-0.73;39.43;99552.91;5033988;23;20389;-79
2021/01/17 07:30:04;;;;;;;9.93;5.97;;;;;;;-0.85;39.57;99520.03;5056026;23;20060;-77
2021/01/17 07:32:36;;;;;;;9.10;5.80;;;;;;;-0.71;39.82;99547.63;5041174;28;20045;-80
2021/01/17 07:35:11;;;;;;;9.03;6.43;;;;;;;-0.91;39.60;99501.50;5040507;28;20116;-78
2021/01/17 07:37:42;;;;;;;11.43;6.97;;;;;;;-0.57;39.72;99542.31;5033790;23;20059;-77
2021/01/17 07:40:09;;;;;;;11.93;7.37;;;;;;;-1.18;40.18;99427.34;5047376;23;20044;-79
2021/01/17 07:42:37;;;;;;;13.17;7.67;;;;;;;-0.59;39.29;99522.59;5025293;28;20098;-77
2021/01/17 07:45:15;;;;;;;10.83;6.93;;;;;;;-0.48;38.30;99533.06;5043316;28;20041;-80
2021/01/17 07:47:43;;;;;;;8.90;5.40;;;;;;;-0.60;38.49;99523.53;5044243;28;20026;-79
2021/01/17 07:50:11;;;;;;;11.33;7.73;;;;;;;-1.00;38.73;99459.75;5073418;23;20100;-79
2021/01/17 07:52:54;;;;;;;10.53;6.43;;;;;;;-0.86;37.74;99504.59;5033505;23;20375;-80
2021/01/17 07:55:21;;;;;;;9.00;6.10;;;;;;;-0.67;39.17;99531.75;5042688;28;20034;-78
2021/01/17 07:57:50;;;;;;;11.27;6.30;;;;;;;-0.84;38.47;99493.19;5042469;28;20391;-78
2021/01/17 08:00:16;;;;;;;12.30;6.60;;;;;;;-1.55;38.89;99379.00;5047015;28;20033;-80
2021/01/17 08:02:49;;;;;;;8.93;6.53;;;;;;;-0.75;38.63;99500.31;5046187;28;20025;-79
2021/01/17 08:05:14;;;;;;;11.20;6.23;;;;;;;-0.81;38.83;99479.19;5045450;28;20025;-81
2021/01/17 08:07:40;;;;;;;11.77;7.80;;;;;;;-0.96;37.24;99465.53;5046430;28;20034;-79
2021/01/17 08:10:06;;;;;;;11.83;7.63;;;;;;;-0.55;38.53;99517.09;5058680;23;20233;-79
2021/01/17 08:12:45;;;;;;;16.00;9.93;;;;;;;-0.42;37.66;99524.84;5046216;28;20040;-80
2021/01/17 08:15:22;;;;;;;11.23;6.47;;;;;;;-0.37;38.54;99527.94;5013627;28;20033;-79
2021/01/17 08:17:50;;;;;;;10.40;7.13;;;;;;;-0.97;38.36;99410.28;5045528;28;20047;-79
2021/01/17 08:20:29;;;;;;;11.77;7.07;;;;;;;-0.60;37.76;99502.81;5049433;28;20037;-80
2021/01/17 08:23:09;;;;;;;11.00;6.50;;;;;;;-0.37;37.89;99533.94;5030603;28;20040;-78
2021/01/17 08:25:48;;;;;;;13.57;6.93;;;;;;;-0.28;38.10;99532.47;5030038;23;20049;-79
2021/01/17 08:28:37;;;;;;;14.40;7.93;;;;;;;-0.26;37.51;99530.59;5041754;23;20048;-77
2021/01/17 08:31:31;;;;;;;13.17;7.37;;;;;;;-0.26;37.28;99528.00;5046421;23;20555;-78
2021/01/17 08:34:08;;;;;;;11.67;7.40;;;;;;;-0.13;38.04;99536.53;5051964;23;20060;-81
2021/01/17 08:36:33;;;;;;;12.33;7.60;;;;;;;-0.35;37.53;99494.94;5029485;28;20061;-79
2021/01/17 08:49:11;;;;;;;10.75;6.72;;;;;;;-0.20;37.38;99532.75;5093076;23;20068;-78
2021/01/17 08:51:37;;;;;;;11.93;7.07;;;;;;;-0.33;37.54;99509.44;5063492;23;20042;-79
2021/01/17 08:54:27;;;;;;;15.47;8.77;;;;;;;-0.18;36.94;99510.09;5047127;28;20040;-79
2021/01/17 08:56:54;;;;;;;15.33;9.93;;;;;;;-0.17;38.13;99523.91;5044779;28;20436;-78
2021/01/17 08:59:33;;;;;;;10.30;7.30;;;;;;;-0.06;36.85;99531.75;5029862;23;20053;-80
2021/01/17 09:02:00;;;;;;;11.40;6.87;;;;;;;-0.71;37.33;99436.16;5024541;28;20041;-80
2021/01/17 09:04:27;;;;;;;8.77;6.20;;;;;;;-0.17;37.05;99495.38;5026992;28;20041;-80
2021/01/17 09:06:53;;;;;;;11.37;7.17;;;;;;;-0.33;37.21;99467.94;5025283;28;20073;-78
2021/01/17 09:09:19;;;;;;;9.70;5.87;;;;;;;-0.09;36.89;99521.59;5025869;28;20053;-78
2021/01/17 09:11:45;;;;;;;11.87;8.10;;;;;;;-0.40;36.94;99476.28;5020061;28;20034;-77
2021/01/17 09:14:14;;;;;;;10.70;7.13;;;;;;;-0.20;36.78;99500.78;5022364;28;20046;-77
2021/01/17 09:16:44;;;;;;;15.43;9.27;;;;;;;0.14;37.03;99530.31;5005774;28;20040;-78
2021/01/17 09:19:09;;;;;;;13.00;7.90;;;;;;;-0.11;37.66;99482.78;5022123;28;20392;-79
2021/01/17 09:21:35;;;;;;;12.07;7.67;;;;;;;0.10;37.48;99474.38;5024897;28;20030;-78
2021/01/17 09:24:06;;;;;;;13.70;8.00;;;;;;;0.41;36.41;99530.88;5022575;28;20026;-78
2021/01/17 09:26:41;;;;;;;11.00;7.07;;;;;;;0.44;37.05;99530.66;5028297;28;20026;-80
2021/01/17 09:29:07;;;;;;;15.47;9.10;;;;;;;0.41;36.91;99523.09;4988034;28;20038;-77
2021/01/17 09:31:33;;;;;;;13.60;8.03;;;;;;;0.48;37.00;99541.63;5017741;28;20164;-76
2021/01/17 09:33:58;;;;;;;13.43;8.10;;;;;;;0.51;37.17;99546.59;5018361;28;20029;-77
2021/01/17 09:36:25;;;;;;;12.27;6.87;;;;;;;0.55;36.83;99538.47;5017046;28;20033;-77
2021/01/17 09:38:51;;;;;;;15.57;8.73;;;;;;;0.64;37.14;99535.19;5017252;28;20025;-76
2021/01/17 09:41:25;;;;;;;16.10;9.73;;;;;;;0.47;36.82;99508.81;5017366;28;20032;-77
2021/01/17 09:43:51;;;;;;;13.80;9.07;;;;;;;0.76;36.83;99524.84;5015806;28;20439;-77
2021/01/17 09:46:21;;;;;;;14.43;8.23;;;;;;;0.77;36.62;99518.69;5028572;23;20053;-77
2021/01/17 09:48:59;;;;;;;11.37;6.70;;;;;;;0.38;35.14;99489.56;4999694;28;20040;-76
2021/01/17 09:51:29;;;;;;;12.17;8.80;;;;;;;0.81;36.31;99523.53;5017268;28;20109;-77
2021/01/17 09:53:56;;;;;;;12.37;7.07;;;;;;;0.98;36.14;99522.25;5017285;28;20380;-78
2021/01/17 09:56:22;;;;;;;12.90;7.47;;;;;;;1.14;36.26;99509.72;5017633;28;20098;-76
2021/01/17 09:58:48;;;;;;;10.13;7.23;;;;;;;1.17;36.01;99493.06;5016897;28;20061;-76
2021/01/17 10:01:20;;;;;;;13.40;8.10;;;;;;;1.08;35.39;99459.97;5016975;28;20025;-77
2021/01/17 10:03:47;;;;;;;;;;;;;;;1.09;33.96;99495.44;5018031;28;20030;-77
2021/01/17 10:06:13;;;;;;;13.37;7.83;;;;;;;1.15;35.86;99487.16;5017894;28;19960;-77
2021/01/17 10:08:39;;;;;;;10.47;6.77;;;;;;;0.95;35.62;99449.69;5017827;28;20021;-76
2021/01/17 10:11:04;;;;;;;15.53;8.60;;;;;;;0.90;35.80;99407.66;5017199;28;20476;-77
2021/01/17 10:13:30;;;;;;;12.07;7.77;;;;;;;1.43;35.62;99491.00;5016621;28;20045;-76
2021/01/17 10:15:55;;;;;;;12.70;7.70;;;;;;;1.37;35.43;99478.47;4998897;28;20506;-77
2021/01/17 10:18:24;;;;;;;9.87;6.70;;;;;;;1.12;34.81;99415.41;5018039;28;20029;-77
2021/01/17 10:20:54;;;;;;;11.70;7.23;;;;;;;1.63;34.63;99477.25;5018930;28;20089;-77
2021/01/17 10:23:27;;;;;;;10.53;7.03;;;;;;;0.89;33.54;99339.25;5000729;28;20017;-77
2021/01/17 10:25:53;;;;;;;11.53;7.63;;;;;;;1.76;34.44;99466.69;5019152;28;20022;-78
2021/01/17 10:28:18;;;;;;;11.10;7.10;;;;;;;1.66;34.12;99434.56;5017280;28;20092;-77
2021/01/17 10:30:43;;;;;;;12.40;7.30;;;;;;;1.75;34.02;99426.00;5000159;28;20026;-76
2021/01/17 10:33:14;;;;;;;13.87;7.73;;;;;;;2.06;34.39;99466.78;4999734;28;20077;-77
2021/01/17 10:35:46;;;;;;;10.93;6.83;;;;;;;2.05;34.23;99446.09;5018051;28;20344;-77
2021/01/17 10:38:12;;;;;;;;;;;;;;;2.08;34.50;99477.09;5001381;28;20026;-77
2021/01/17 10:40:38;;;;;;;10.17;7.37;;;;;;;2.08;34.93;99449.28;5019185;28;20239;-78
2021/01/17 10:43:09;;;;;;;12.50;9.13;;;;;;;2.32;33.90;99471.66;5017135;28;20065;-76
2021/01/17 10:45:38;;;;;;;13.25;7.97;;;;;;;1.95;34.19;99435.59;5017950;28;20045;-76
2021/01/17 10:48:15;;;;;;;13.03;8.40;;;;;;;2.17;33.72;99473.72;5017454;28;20026;-76
2021/01/17 10:50:52;;;;;;;9.93;6.73;;;;;;;2.14;32.40;99469.59;5017638;28;20022;-77
2021/01/17 10:53:38;;;;;;;9.77;5.87;;;;;;;2.14;32.50;99480.00;5017357;28;20053;-77
2021/01/17 10:56:05;;;;;;;12.57;6.93;;;;;;;2.09;34.17;99474.34;5004956;28;20038;-77
2021/01/17 10:58:38;;;;;;;30.27;14.97;;;;;;;1.92;33.78;99449.69;5018812;28;20026;-76
2021/01/17 11:01:04;;;;;;;11.50;7.70;;;;;;;1.94;33.83;99478.22;5019262;28;20568;-76
2021/01/17 11:03:44;;;;;;;7.90;6.07;;;;;;;1.65;33.07;99418.13;5019169;28;20100;-77
2021/01/17 11:06:21;;;;;;;8.27;6.30;;;;;;;1.47;33.16;99398.75;4999231;28;20022;-76
2021/01/17 11:08:52;;;;;;;9.53;6.30;;;;;;;1.86;33.76;99459.78;5017051;28;20061;-77
2021/01/17 11:11:18;;;;;;;13.00;8.17;;;;;;;1.66;34.03;99442.38;5017960;28;20025;-76
2021/01/17 11:13:54;;;;;;;13.67;7.97;;;;;;;1.79;33.34;99476.84;4999844;28;20420;-77
2021/01/17 11:16:42;;;;;;;12.13;7.93;;;;;;;1.64;33.34;99475.50;4999533;28;20026;-78
2021/01/17 11:19:10;;;;;;;18.20;10.03;;;;;;;1.53;33.79;99471.16;5016519;28;20076;-77
2021/01/17 11:21:35;;;;;;;12.73;7.57;;;;;;;1.29;34.10;99434.88;5016094;28;20036;-76
2021/01/17 11:24:01;;;;;;;17.93;8.73;;;;;;;1.43;34.73;99472.78;5018218;28;20025;-80
2021/01/17 11:26:27;;;;;;;13.17;7.77;;;;;;;1.50;34.77;99472.22;5017986;28;20029;-76
2021/01/17 11:28:59;;;;;;;10.40;7.30;;;;;;;1.39;34.74;99441.00;5017421;28;20030;-76
2021/01/17 11:31:25;;;;;;;15.50;8.27;;;;;;;1.54;34.56;99468.41;4998521;28;20432;-76
2021/01/17 11:33:51;;;;;;;13.43;8.33;;;;;;;1.53;34.76;99476.34;5018849;28;20041;-76
2021/01/17 11:36:23;;;;;;;13.70;8.13;;;;;;;1.53;34.46;99474.56;5019984;28;20029;-76
2021/01/17 11:38:54;;;;;;;15.57;8.83;;;;;;;1.64;34.23;99480.69;5020272;28;20037;-75
2021/01/17 11:41:23;;;;;;;9.90;6.97;;;;;;;1.55;34.01;99445.84;5002840;28;20440;-77
2021/01/17 11:43:49;;;;;;;12.20;7.43;;;;;;;1.26;34.17;99383.94;5003602;28;20033;-76
2021/01/17 11:46:15;;;;;;;14.90;9.10;;;;;;;1.83;34.38;99452.22;5020818;28;20032;-78
2021/01/17 11:48:42;;;;;;;15.27;8.60;;;;;;;1.77;33.90;99422.31;5019681;28;20026;-78
2021/01/17 11:51:09;;;;;;;12.77;7.87;;;;;;;1.74;33.72;99453.81;5019808;28;20037;-78
2021/01/17 11:53:35;;;;;;;12.33;7.00;;;;;;;1.69;33.94;99457.72;5020019;28;20045;-78
2021/01/17 11:56:01;;;;;;;9.93;7.13;;;;;;;1.31;34.08;99416.53;5019717;28;20021;-78
2021/01/17 11:58:28;;;;;;;12.57;6.87;;;;;;;1.67;33.16;99451.81;5019264;28;20417;-77
2021/01/17 12:00:59;;;;;;;11.07;6.53;;;;;;;1.65;33.36;99448.53;5025865;23;20053;-77
2021/01/17 12:03:24;;;;;;;13.03;7.30;;;;;;;1.48;33.63;99455.88;5038392;28;20100;-76
2021/01/17 12:06:07;;;;;;;9.67;6.43;;;;;;;1.01;33.49;99378.22;5021514;28;20403;-78
2021/01/17 12:08:49;;;;;;;9.63;5.80;;;;;;;1.04;31.98;99391.78;5039634;28;20044;-78
2021/01/17 12:11:34;;;;;;;7.67;5.47;;;;;;;1.35;32.74;99429.19;5039811;28;20092;-78
2021/01/17 12:14:02;;;;;;;8.40;6.10;;;;;;;1.06;33.28;99355.28;5028702;23;20053;-78
2021/01/17 12:16:31;;;;;;;12.27;7.33;;;;;;;1.46;33.47;99421.34;5022029;28;20033;-77
2021/01/17 12:18:57;;;;;;;14.63;8.40;;;;;;;1.56;33.60;99429.28;5022029;28;20408;-76
2021/01/17 12:21:27;;;;;;;11.60;7.13;;;;;;;1.46;33.21;99410.94;5039614;28;20025;-77
2021/01/17 12:23:53;;;;;;;8.43;5.87;;;;;;;1.47;33.21;99432.59;5039399;28;20053;-77
2021/01/17 12:26:19;;;;;;;9.63;5.67;;;;;;;1.55;33.69;99401.59;5039040;28;20036;-78
2021/01/17 12:28:47;;;;;;;11.17;6.30;;;;;;;1.74;33.06;99419.97;5038591;28;20037;-77
2021/01/17 12:31:13;;;;;;;10.57;6.20;;;;;;;1.59;33.15;99390.81;5038719;28;20388;-76
2021/01/17 12:33:39;;;;;;;9.10;6.20;;;;;;;1.50;32.69;99375.13;5020404;28;20424;-77
2021/01/17 12:36:09;;;;;;;7.33;5.03;;;;;;;2.03;31.96;99437.59;5045943;23;20037;-78
2021/01/17 12:38:35;;;;;;;9.10;6.13;;;;;;;1.87;31.91;99438.00;5018166;28;20388;-76
2021/01/17 12:41:06;;;;;;;13.10;7.30;;;;;;;1.93;32.34;99440.13;5004174;28;20089;-77
2021/01/17 12:43:31;;;;;;;12.53;6.53;;;;;;;1.53;32.14;99359.28;5021032;28;20030;-78
2021/01/17 12:45:56;;;;;;;11.40;6.70;;;;;;;1.79;31.93;99397.00;5017698;28;20024;-78
2021/01/17 12:48:22;;;;;;;12.30;7.10;;;;;;;1.79;32.11;99404.81;5020783;23;20065;-78
2021/01/17 12:50:48;;;;;;;12.83;7.20;;;;;;;1.97;32.51;99432.88;5004842;28;20041;-77
2021/01/17 12:53:13;;;;;;;9.97;6.60;;;;;;;1.89;32.38;99417.88;5038336;28;20030;-78